createdAt,value
2022-11-12T00:00:47.539Z,3.10
2022-11-12T00:03:15.424Z,2.63
2022-11-12T00:05:43.258Z,2.50
2022-11-12T00:08:11.171Z,2.30
2022-11-12T00:10:39.109Z,2.10
2022-11-12T00:13:08.407Z,2.30
2022-11-12T00:15:36.284Z,2.40
2022-11-12T00:18:04.272Z,2.20
2022-11-12T00:20:32.127Z,2.60
2022-11-12T00:23:00.111Z,2.30
2022-11-12T00:25:28.395Z,2.40
2022-11-12T00:27:59.576Z,2.70
2022-11-12T00:30:28.877Z,3.00
2022-11-12T00:32:56.744Z,2.47
2022-11-12T00:35:24.622Z,3.07
2022-11-12T00:37:56.726Z,3.40
2022-11-12T00:40:25.222Z,2.90
2022-11-12T00:42:54.841Z,3.13
2022-11-12T00:45:22.804Z,3.33
2022-11-12T00:47:54.918Z,3.40
2022-11-12T00:50:22.800Z,3.60
2022-11-12T00:52:52.876Z,3.87
2022-11-12T00:55:20.800Z,4.60
2022-11-12T00:57:48.636Z,4.37
2022-11-12T01:00:17.194Z,4.17
2022-11-12T01:02:50.448Z,4.40
2022-11-12T01:05:20.809Z,4.33
2022-11-12T01:07:54.747Z,4.00
2022-11-12T01:10:23.762Z,4.60
2022-11-12T01:12:51.630Z,4.63
2022-11-12T01:15:19.632Z,4.80
2022-11-12T01:17:47.527Z,4.70
2022-11-12T01:20:15.506Z,4.13
2022-11-12T01:22:44.773Z,4.37
2022-11-12T01:25:12.598Z,4.77
2022-11-12T01:27:40.474Z,4.80
2022-11-12T01:30:09.463Z,4.20
2022-11-12T01:32:37.899Z,3.70
2022-11-12T01:35:06.749Z,4.63
2022-11-12T01:37:34.611Z,4.60
2022-11-12T01:40:03.962Z,4.10
2022-11-12T01:42:32.264Z,4.43
2022-11-12T01:45:00.169Z,3.83
2022-11-12T01:47:28.877Z,4.10
2022-11-12T01:49:57.993Z,4.17
2022-11-12T01:52:28.626Z,4.33
2022-11-12T01:54:57.534Z,4.00
2022-11-12T01:57:33.459Z,3.97
2022-11-12T02:00:06.196Z,4.07
2022-11-12T02:02:34.202Z,3.90
2022-11-12T02:05:02.144Z,3.83
2022-11-12T02:07:30.048Z,3.63
2022-11-12T02:09:57.898Z,3.90
2022-11-12T02:12:44.953Z,3.80
2022-11-12T02:15:12.848Z,3.73
2022-11-12T02:17:40.722Z,4.17
2022-11-12T02:20:10.907Z,3.73
2022-11-12T02:22:40.143Z,3.80
2022-11-12T02:25:09.779Z,3.67
2022-11-12T02:27:37.692Z,3.80
2022-11-12T02:30:06.487Z,3.63
2022-11-12T02:32:34.645Z,3.70
2022-11-12T02:35:02.547Z,4.30
2022-11-12T02:37:30.448Z,4.40
2022-11-12T02:39:59.797Z,4.23
2022-11-12T02:42:27.662Z,4.23
2022-11-12T02:44:55.496Z,4.53
2022-11-12T02:47:23.356Z,4.97
2022-11-12T02:49:51.212Z,5.30
2022-11-12T02:52:19.139Z,5.60
2022-11-12T02:54:47.020Z,5.73
2022-11-12T02:57:16.300Z,5.93
2022-11-12T02:59:44.188Z,5.87
2022-11-12T03:02:12.034Z,5.23
2022-11-12T03:04:39.911Z,6.53
2022-11-12T03:07:07.840Z,5.93
2022-11-12T03:09:35.766Z,5.53
2022-11-12T03:12:03.736Z,5.70
2022-11-12T03:14:33.022Z,6.27
2022-11-12T03:17:00.934Z,6.37
2022-11-12T03:19:28.777Z,5.67
2022-11-12T03:21:56.661Z,6.23
2022-11-12T03:24:24.580Z,6.57
2022-11-12T03:26:52.605Z,7.10
2022-11-12T03:29:20.473Z,6.93
2022-11-12T03:31:49.728Z,7.17
2022-11-12T03:34:17.611Z,7.03
2022-11-12T03:36:45.498Z,7.27
2022-11-12T03:39:13.362Z,7.17
2022-11-12T03:41:41.237Z,7.20
2022-11-12T03:44:09.121Z,7.13
2022-11-12T03:46:41.532Z,7.17
2022-11-12T03:49:13.410Z,7.87
2022-11-12T03:51:41.284Z,7.17
2022-11-12T03:54:09.159Z,7.73
2022-11-12T03:56:37.321Z,7.30
2022-11-12T03:59:05.521Z,7.53
2022-11-12T04:01:33.681Z,7.53
2022-11-12T04:04:01.616Z,7.33
2022-11-12T04:06:48.226Z,8.07
2022-11-12T04:09:16.120Z,7.67
2022-11-12T04:11:44.305Z,7.73
2022-11-12T04:14:11.214Z,7.20
2022-11-12T04:16:56.630Z,8.13
2022-11-12T04:19:41.977Z,7.37
2022-11-12T04:22:11.933Z,7.10
2022-11-12T04:24:58.216Z,7.83
2022-11-12T04:27:27.386Z,7.57
2022-11-12T04:30:12.500Z,8.00
2022-11-12T04:32:41.393Z,7.07
2022-11-12T04:35:09.887Z,7.37
2022-11-12T04:37:48.548Z,7.37
2022-11-12T04:40:34.883Z,7.27
2022-11-12T04:43:20.431Z,7.40
2022-11-12T04:45:49.434Z,6.73
2022-11-12T04:48:17.413Z,7.53
2022-11-12T04:50:45.894Z,7.50
2022-11-12T04:53:15.246Z,6.80
2022-11-12T04:55:43.126Z,6.17
2022-11-12T04:58:11.009Z,7.00
2022-11-12T05:00:38.899Z,6.77
2022-11-12T05:03:06.851Z,6.53
2022-11-12T05:05:34.759Z,6.63
2022-11-12T05:08:02.632Z,6.10
2022-11-12T05:10:32.006Z,6.83
2022-11-12T05:12:59.906Z,6.50
2022-11-12T05:15:27.820Z,6.63
2022-11-12T05:17:55.710Z,5.97
2022-11-12T05:20:23.638Z,6.50
2022-11-12T05:23:05.729Z,6.80
2022-11-12T05:25:36.352Z,5.83
2022-11-12T05:28:06.711Z,5.70
2022-11-12T05:30:35.230Z,5.87
2022-11-12T05:33:03.162Z,6.27
2022-11-12T05:35:31.093Z,6.60
2022-11-12T05:37:58.938Z,5.80
2022-11-12T05:40:26.823Z,6.17
2022-11-12T05:42:56.199Z,5.80
2022-11-12T05:45:24.074Z,5.80
2022-11-12T05:47:51.986Z,5.57
2022-11-12T05:50:19.851Z,5.63
2022-11-12T05:52:47.764Z,5.30
2022-11-12T05:55:15.910Z,5.13
2022-11-12T05:57:43.822Z,5.87
2022-11-12T06:00:14.151Z,5.90
2022-11-12T06:02:43.134Z,5.27
2022-11-12T06:05:11.173Z,5.70
2022-11-12T06:07:39.034Z,5.90
2022-11-12T06:10:07.754Z,5.60
2022-11-12T06:12:35.607Z,5.90
2022-11-12T06:15:03.535Z,6.47
2022-11-12T06:17:32.773Z,6.70
2022-11-12T06:20:00.723Z,6.43
2022-11-12T06:22:28.671Z,5.93
2022-11-12T06:24:56.547Z,7.00
2022-11-12T06:27:24.708Z,6.23
2022-11-12T06:29:52.647Z,6.50
2022-11-12T06:32:20.546Z,6.87
2022-11-12T06:34:50.583Z,7.37
2022-11-12T06:37:18.443Z,6.17
2022-11-12T06:39:46.355Z,6.60
2022-11-12T06:42:14.241Z,6.27
2022-11-12T06:44:42.088Z,7.23
2022-11-12T06:47:10.063Z,6.60
2022-11-12T06:49:38.016Z,7.03
2022-11-12T06:52:08.015Z,7.10
2022-11-12T06:54:37.853Z,7.83
2022-11-12T06:57:05.778Z,7.30
2022-11-12T06:59:33.711Z,7.77
2022-11-12T07:02:01.590Z,8.13
2022-11-12T07:04:29.576Z,7.83
2022-11-12T07:06:57.537Z,7.73
2022-11-12T07:09:26.872Z,7.80
2022-11-12T07:11:54.732Z,8.63
2022-11-12T07:14:22.610Z,8.50
2022-11-12T07:16:50.554Z,8.50
2022-11-12T07:19:18.443Z,8.23
2022-11-12T07:21:46.381Z,8.60
2022-11-12T07:24:14.274Z,8.80
2022-11-12T07:26:47.469Z,8.67
2022-11-12T07:29:30.084Z,8.97
2022-11-12T07:32:06.164Z,9.00
2022-11-12T07:34:34.384Z,8.80
2022-11-12T07:37:02.314Z,8.97
2022-11-12T07:39:30.271Z,9.50
2022-11-12T07:41:59.773Z,8.50
2022-11-12T07:44:27.631Z,8.40
2022-11-12T07:46:55.565Z,8.70
2022-11-12T07:49:23.462Z,8.90
2022-11-12T07:51:51.364Z,8.47
2022-11-12T07:54:19.562Z,9.07
2022-11-12T07:56:47.435Z,9.13
2022-11-12T07:59:16.680Z,8.90
2022-11-12T08:01:45.413Z,9.40
2022-11-12T08:04:14.119Z,10.07
2022-11-12T08:06:42.234Z,9.20
2022-11-12T08:09:10.613Z,10.00
2022-11-12T08:11:38.559Z,9.90
2022-11-12T08:14:06.537Z,10.47
2022-11-12T08:16:35.924Z,9.93
2022-11-12T08:19:03.795Z,9.70
2022-11-12T08:21:31.665Z,10.03
2022-11-12T08:23:59.616Z,9.60
2022-11-12T08:26:27.579Z,10.00
2022-11-12T08:28:55.562Z,9.73
2022-11-12T08:31:23.590Z,10.30
2022-11-12T08:33:52.903Z,10.13
2022-11-12T08:36:20.848Z,9.77
2022-11-12T08:38:48.795Z,11.40
2022-11-12T08:41:17.719Z,10.63
2022-11-12T08:43:45.627Z,10.00
2022-11-12T08:46:13.629Z,9.90
2022-11-12T08:48:41.579Z,9.90
2022-11-12T08:51:10.855Z,10.30
2022-11-12T08:53:38.770Z,10.57
2022-11-12T08:56:06.954Z,10.60
2022-11-12T08:58:34.863Z,10.40
2022-11-12T09:01:05.515Z,11.90
2022-11-12T09:03:33.414Z,10.57
2022-11-12T09:06:03.854Z,10.90
2022-11-12T09:08:34.181Z,10.93
2022-11-12T09:11:02.056Z,10.73
2022-11-12T09:13:30.065Z,10.90
2022-11-12T09:16:02.577Z,10.40
2022-11-12T09:18:35.153Z,9.83
2022-11-12T09:21:04.275Z,10.13
2022-11-12T09:23:34.768Z,10.53
2022-11-12T09:26:02.812Z,10.53
2022-11-12T09:28:30.817Z,10.97
2022-11-12T09:30:58.891Z,10.07
2022-11-12T09:33:28.314Z,10.17
2022-11-12T09:35:56.638Z,10.37
2022-11-12T09:38:24.907Z,10.20
2022-11-12T09:41:19.029Z,10.17
2022-11-12T09:43:49.863Z,9.70
2022-11-12T09:46:28.022Z,9.47
2022-11-12T09:49:01.655Z,9.33
2022-11-12T09:51:31.395Z,9.37
2022-11-12T09:53:59.798Z,9.47
2022-11-12T09:56:29.897Z,9.07
2022-11-12T09:58:57.869Z,9.43
2022-11-12T10:01:38.849Z,9.87
2022-11-12T10:04:17.192Z,8.07
2022-11-12T10:06:46.891Z,8.63
2022-11-12T10:09:17.606Z,9.07
2022-11-12T10:12:14.550Z,8.60
2022-11-12T10:14:50.178Z,8.43
2022-11-12T10:17:19.948Z,8.00
2022-11-12T10:20:01.246Z,8.47
2022-11-12T10:22:40.861Z,8.57
2022-11-12T10:25:15.699Z,8.43
2022-11-12T10:27:45.647Z,8.00
2022-11-12T10:30:20.014Z,8.77
2022-11-12T10:32:50.671Z,9.10
2022-11-12T10:35:19.693Z,8.07
2022-11-12T10:37:49.328Z,6.80
2022-11-12T10:40:29.686Z,6.40
2022-11-12T10:42:59.968Z,6.87
2022-11-12T10:45:27.873Z,6.60
2022-11-12T10:47:55.800Z,6.20
2022-11-12T10:50:24.045Z,6.13
2022-11-12T10:52:56.676Z,6.77
2022-11-12T10:55:25.217Z,6.40
2022-11-12T10:58:08.632Z,6.03
2022-11-12T11:00:36.576Z,6.43
2022-11-12T11:03:07.028Z,6.67
2022-11-12T11:05:35.883Z,6.27
2022-11-12T11:08:03.864Z,6.00
2022-11-12T11:10:32.500Z,6.13
2022-11-12T11:13:21.208Z,6.65
2022-11-12T11:16:00.026Z,6.28
2022-11-12T11:18:28.615Z,6.05
2022-11-12T11:21:02.736Z,5.80
2022-11-12T11:23:32.421Z,6.38
2022-11-12T11:26:19.647Z,6.22
2022-11-12T11:28:51.132Z,6.03
2022-11-12T11:31:22.144Z,6.22
2022-11-12T11:33:50.982Z,5.93
2022-11-12T11:36:23.213Z,5.63
2022-11-12T11:38:57.536Z,5.47
2022-11-12T11:41:33.063Z,5.20
2022-11-12T11:44:13.642Z,5.53
2022-11-12T11:46:48.190Z,5.30
2022-11-12T11:49:28.442Z,5.53
2022-11-12T11:51:58.317Z,5.15
2022-11-12T11:54:52.688Z,6.30
2022-11-12T11:57:22.669Z,7.00
2022-11-12T12:00:02.813Z,5.72
2022-11-12T12:02:40.400Z,5.53
2022-11-12T12:05:12.970Z,6.00
2022-11-12T12:07:44.370Z,6.00
2022-11-12T12:10:18.520Z,5.78
2022-11-12T12:12:52.727Z,5.97
2022-11-12T12:15:45.460Z,6.00
2022-11-12T12:18:18.354Z,5.40
2022-11-12T12:20:49.667Z,5.55
2022-11-12T12:23:23.112Z,5.47
2022-11-12T12:25:51.419Z,5.20
2022-11-12T12:28:27.058Z,5.15
2022-11-12T12:30:59.690Z,5.07
2022-11-12T12:33:30.243Z,5.20
2022-11-12T12:36:00.605Z,4.95
2022-11-12T12:38:30.678Z,5.20
2022-11-12T12:41:01.996Z,5.47
2022-11-12T12:43:33.292Z,5.28
2022-11-12T12:46:02.578Z,5.82
2022-11-12T12:48:31.411Z,6.47
2022-11-12T12:50:59.425Z,6.10
2022-11-12T12:53:34.600Z,6.47
2022-11-12T12:56:03.162Z,6.40
2022-11-12T12:58:31.749Z,6.20
2022-11-12T13:01:05.175Z,6.27
2022-11-12T13:03:53.325Z,6.43
2022-11-12T13:06:28.983Z,6.40
2022-11-12T13:08:59.126Z,7.17
2022-11-12T13:12:06.404Z,6.40
2022-11-12T13:15:05.627Z,6.27
2022-11-12T13:17:51.309Z,6.43
2022-11-12T13:20:40.646Z,6.73
2022-11-12T13:24:04.644Z,6.67
2022-11-12T13:26:52.555Z,6.87
2022-11-12T13:29:23.191Z,6.23
2022-11-12T13:31:51.155Z,6.47
2022-11-12T13:34:26.159Z,6.40
2022-11-12T13:36:57.443Z,6.40
2022-11-12T13:39:25.352Z,6.03
2022-11-12T13:42:15.519Z,6.80
2022-11-12T13:44:43.497Z,6.53
2022-11-12T13:47:13.891Z,6.60
2022-11-12T13:49:44.158Z,6.83
2022-11-12T13:52:13.223Z,6.30
2022-11-12T13:54:41.101Z,6.00
2022-11-12T13:57:28.873Z,6.47
2022-11-12T14:00:24.415Z,5.77
2022-11-12T14:02:54.827Z,6.37
2022-11-12T14:05:24.732Z,6.40
2022-11-12T14:08:10.795Z,7.30
2022-11-12T14:10:45.892Z,6.97
2022-11-12T14:13:40.947Z,6.07
2022-11-12T14:16:26.767Z,6.17
2022-11-12T14:19:06.514Z,5.47
2022-11-12T14:21:35.773Z,5.87
2022-11-12T14:24:03.888Z,5.80
2022-11-12T14:26:36.926Z,5.80
2022-11-12T14:29:04.799Z,5.80
2022-11-12T14:31:32.893Z,5.70
2022-11-12T14:34:21.834Z,5.13
2022-11-12T14:36:52.768Z,4.95
2022-11-12T14:39:20.648Z,5.03
2022-11-12T14:41:49.439Z,5.70
2022-11-12T14:44:19.251Z,5.20
2022-11-12T14:46:48.478Z,5.18
2022-11-12T14:49:19.413Z,5.20
2022-11-12T14:51:48.928Z,6.40
2022-11-12T14:54:22.476Z,7.00
2022-11-12T14:56:50.423Z,6.72
2022-11-12T14:59:18.316Z,7.10
2022-11-12T15:04:54.709Z,8.00
2022-11-12T15:07:26.972Z,7.70
2022-11-12T15:09:56.270Z,7.07
2022-11-12T15:12:25.249Z,6.43
2022-11-12T15:14:53.340Z,6.30
2022-11-12T15:17:28.452Z,6.40
2022-11-12T15:20:01.092Z,5.63
2022-11-12T15:22:29.080Z,5.30
2022-11-12T15:24:58.588Z,5.77
2022-11-12T15:27:35.810Z,5.53
2022-11-12T15:30:20.408Z,6.27
2022-11-12T15:32:48.352Z,5.10
2022-11-12T15:35:35.677Z,5.23
2022-11-12T15:38:04.698Z,6.03
2022-11-12T15:40:35.152Z,5.33
2022-11-12T15:43:03.062Z,5.57
2022-11-12T15:45:31.145Z,5.00
2022-11-12T15:47:58.995Z,5.63
2022-11-12T15:50:26.935Z,5.63
2022-11-12T15:52:55.392Z,5.63
2022-11-12T15:55:23.302Z,5.20
2022-11-12T15:57:53.268Z,5.23
2022-11-12T16:00:22.028Z,5.77
2022-11-12T16:02:53.108Z,5.40
2022-11-12T16:05:21.016Z,5.30
2022-11-12T16:07:48.914Z,5.57
2022-11-12T16:10:17.720Z,5.40
2022-11-12T16:12:46.099Z,5.77
2022-11-12T16:15:16.003Z,5.87
2022-11-12T16:17:43.868Z,5.77
2022-11-12T16:20:16.149Z,6.20
2022-11-12T16:22:44.187Z,5.50
2022-11-12T16:25:13.432Z,5.40
2022-11-12T16:27:41.343Z,5.90
2022-11-12T16:30:16.392Z,6.20
2022-11-12T16:32:44.406Z,6.37
2022-11-12T16:35:12.279Z,5.73
2022-11-12T16:37:40.427Z,5.97
2022-11-12T16:40:10.866Z,5.50
2022-11-12T16:42:45.455Z,7.53
2022-11-12T16:45:15.881Z,6.00
2022-11-12T16:47:45.263Z,6.23
2022-11-12T16:50:13.493Z,6.27
2022-11-12T16:52:41.472Z,5.60
2022-11-12T16:55:10.383Z,6.23
2022-11-12T16:57:38.734Z,5.83
2022-11-12T17:00:07.627Z,6.07
2022-11-12T17:02:40.719Z,6.47
2022-11-12T17:05:16.101Z,6.67
2022-11-12T17:07:44.120Z,7.50
2022-11-12T17:10:12.653Z,8.10
2022-11-12T17:12:40.591Z,6.77
2022-11-12T17:15:09.565Z,10.03
2022-11-12T17:17:38.827Z,13.70
2022-11-12T17:20:07.798Z,9.83
2022-11-12T17:22:35.743Z,7.70
2022-11-12T17:25:03.634Z,6.97
2022-11-12T17:27:31.588Z,7.80
2022-11-12T17:30:00.010Z,7.53
2022-11-12T17:32:27.994Z,8.07
2022-11-12T17:34:57.252Z,7.43
2022-11-12T17:37:25.346Z,8.47
2022-11-12T17:39:53.325Z,8.07
2022-11-12T17:42:21.247Z,6.60
2022-11-12T17:44:49.144Z,7.80
2022-11-12T17:47:17.056Z,7.47
2022-11-12T17:49:45.077Z,7.57
2022-11-12T17:52:14.461Z,8.33
2022-11-12T17:54:42.880Z,7.87
2022-11-12T17:57:10.902Z,8.37
2022-11-12T17:59:38.805Z,7.70
2022-11-12T18:02:06.663Z,7.67
2022-11-12T18:04:35.271Z,7.70
2022-11-12T18:07:03.197Z,8.23
2022-11-12T18:09:32.728Z,8.07
2022-11-12T18:12:01.167Z,7.60
2022-11-12T18:14:29.066Z,8.13
2022-11-12T18:16:59.180Z,7.70
2022-11-12T18:19:27.052Z,7.63
2022-11-12T18:21:56.968Z,9.80
2022-11-12T18:24:25.549Z,8.97
2022-11-12T18:26:54.793Z,9.03
2022-11-12T18:29:22.655Z,9.40
2022-11-12T18:31:50.570Z,8.43
2022-11-12T18:34:18.480Z,8.73
2022-11-12T18:36:46.347Z,9.00
2022-11-12T18:39:14.824Z,8.93
2022-11-12T18:41:42.703Z,8.73
2022-11-12T18:44:11.987Z,9.23
2022-11-12T18:46:39.875Z,10.03
2022-11-12T18:49:08.008Z,9.97
2022-11-12T18:51:36.306Z,9.63
2022-11-12T18:54:04.644Z,9.70
2022-11-12T18:56:32.557Z,10.23
2022-11-12T18:59:00.578Z,9.80
2022-11-12T19:01:30.012Z,9.83
2022-11-12T19:03:58.114Z,11.73
2022-11-12T19:06:26.070Z,10.80
2022-11-12T19:08:59.316Z,11.63
2022-11-12T19:11:27.279Z,13.23
2022-11-12T19:13:55.350Z,13.37
2022-11-12T19:16:23.950Z,12.77
2022-11-12T19:18:53.273Z,13.10
2022-11-12T19:21:22.107Z,12.43
2022-11-12T19:23:53.804Z,13.53
2022-11-12T19:26:22.671Z,10.67
2022-11-12T19:28:50.767Z,11.13
2022-11-12T19:31:19.467Z,11.30
2022-11-12T19:33:47.843Z,11.63
2022-11-12T19:36:18.130Z,12.20
2022-11-12T19:38:46.054Z,11.23
2022-11-12T19:41:19.355Z,10.67
2022-11-12T19:43:47.817Z,11.00
2022-11-12T19:46:15.772Z,12.07
2022-11-12T19:48:43.837Z,11.43
2022-11-12T19:51:12.078Z,11.40
2022-11-12T19:53:44.323Z,12.17
2022-11-12T19:56:14.121Z,11.37
2022-11-12T19:58:45.230Z,12.33
2022-11-12T20:01:14.436Z,10.97
2022-11-12T20:03:42.426Z,11.83
2022-11-12T20:06:11.958Z,12.63
2022-11-12T20:08:41.733Z,12.67
2022-11-12T20:11:10.022Z,12.20
2022-11-12T20:13:37.923Z,12.57
2022-11-12T20:16:09.077Z,12.67
2022-11-12T20:18:36.968Z,13.03
2022-11-12T20:21:05.624Z,21.13
2022-11-12T20:23:33.940Z,22.33
2022-11-12T20:26:06.564Z,20.13
2022-11-12T20:28:34.514Z,21.70
2022-11-12T20:31:03.718Z,15.93
2022-11-12T20:33:31.657Z,16.83
2022-11-12T20:36:04.798Z,17.47
2022-11-12T20:38:32.651Z,23.37
2022-11-12T20:41:02.675Z,14.40
2022-11-12T20:43:32.006Z,13.40
2022-11-12T20:45:59.954Z,13.53
2022-11-12T20:48:28.001Z,13.07
2022-11-12T20:51:22.782Z,12.17
2022-11-12T20:53:55.962Z,12.93
2022-11-12T20:56:27.860Z,11.40
2022-11-12T20:58:57.131Z,11.73
2022-11-12T21:01:25.426Z,11.43
2022-11-12T21:03:53.591Z,12.50
2022-11-12T21:06:22.793Z,12.20
2022-11-12T21:08:50.659Z,12.07
2022-11-12T21:11:19.678Z,11.80
2022-11-12T21:13:47.645Z,11.20
2022-11-12T21:16:17.059Z,11.27
2022-11-12T21:18:45.013Z,11.23
2022-11-12T21:21:14.419Z,11.27
2022-11-12T21:23:43.549Z,11.40
2022-11-12T21:26:13.546Z,12.43
2022-11-12T21:28:43.203Z,11.60
2022-11-12T21:31:11.974Z,12.13
2022-11-12T21:33:41.284Z,12.73
2022-11-12T21:36:15.879Z,11.63
2022-11-12T21:38:44.436Z,12.07
2022-11-12T21:41:13.576Z,12.27
2022-11-12T21:43:43.150Z,12.57
2022-11-12T21:46:11.581Z,13.03
2022-11-12T21:48:39.413Z,13.10
2022-11-12T21:51:09.467Z,12.37
2022-11-12T21:53:37.352Z,14.13
2022-11-12T21:56:05.511Z,12.50
2022-11-12T21:58:33.517Z,13.00
2022-11-12T22:01:08.916Z,12.93
2022-11-12T22:03:36.850Z,12.93
2022-11-12T22:06:04.927Z,13.63
2022-11-12T22:08:34.354Z,13.53
2022-11-12T22:11:03.580Z,14.13
2022-11-12T22:13:31.482Z,13.60
2022-11-12T22:15:59.466Z,14.20
2022-11-12T22:18:27.544Z,13.77
2022-11-12T22:20:59.170Z,13.00
2022-11-12T22:23:27.137Z,14.07
2022-11-12T22:25:58.800Z,13.37
2022-11-12T22:28:27.037Z,13.03
2022-11-12T22:30:55.137Z,13.40
2022-11-12T22:33:23.035Z,14.07
2022-11-12T22:35:50.981Z,13.47
2022-11-12T22:38:18.819Z,13.23
2022-11-12T22:40:46.709Z,12.83
2022-11-12T22:43:15.971Z,12.87
2022-11-12T22:45:43.844Z,12.47
2022-11-12T22:48:11.742Z,13.40
2022-11-12T22:50:39.679Z,12.93
2022-11-12T22:53:07.572Z,12.13
2022-11-12T22:55:35.576Z,12.57
2022-11-12T22:58:03.474Z,13.27
2022-11-12T23:00:33.179Z,12.40
2022-11-12T23:03:01.054Z,13.73
2022-11-12T23:05:29.012Z,12.23
2022-11-12T23:07:56.868Z,12.93
2022-11-12T23:10:24.714Z,12.13
2022-11-12T23:12:52.599Z,12.53
2022-11-12T23:15:20.453Z,12.10
2022-11-12T23:17:49.958Z,11.57
2022-11-12T23:20:18.023Z,11.47
2022-11-12T23:22:45.928Z,11.13
2022-11-12T23:25:13.815Z,11.40
2022-11-12T23:27:41.771Z,12.10
2022-11-12T23:30:10.551Z,11.30
2022-11-12T23:32:38.421Z,11.47
2022-11-12T23:35:08.430Z,11.57
2022-11-12T23:37:36.300Z,11.47
2022-11-12T23:40:04.172Z,11.43
2022-11-12T23:42:32.036Z,11.67
2022-11-12T23:44:59.907Z,11.63
2022-11-12T23:47:27.809Z,11.53
2022-11-12T23:49:55.767Z,12.20
2022-11-12T23:52:25.059Z,10.90
2022-11-12T23:54:52.913Z,12.20
2022-11-12T23:57:20.768Z,11.50
2022-11-12T23:59:48.737Z,10.50
